Woodland, Michigan
Current Conditions -  °F | °C
As of 3:14 PM on Friday 28 Nov 2014 (Local Time) from KY70 Reporting Station
Overcast Overcast  
Wind Chill: 17°   Ceiling: 7500
Heat Index: 25°   Visibility: 10mi
Dew Point: 19°   Wind: 8mph
Humidity: 78%   Direction: 170°S
Pressure: 30.12"   Gusts: NA
Location:  42.73°N, 85.13°W
Report Text: KY70 282014Z AUTO 17007KT 10SM OVC075 M04/M07 A3012 RMK AO2 T10371070
Loading
Personal Weather Stations






























Interactive Weather Map New forecast layout! Learn more

10-Day Weather Forecast

Advertisements
Track Severe Weather on mobile